Time;durP1;ratioP1;P1;durP2;ratioP2;P2;SDS_P1;SDS_P2;PMS_P1;PMS_P2;Temp;Humidity;BMP_temperature;BMP_pressure;BME280_temperature;BME280_humidity;BME280_pressure;Samples;Min_cycle;Max_cycle;Signal;HPM_P1;HPM_P2
2023/03/17 00:01:40;;;;;;;8.43;1.60;;;14.20;99.90;;;;;;5066604;28;20404;-85
2023/03/17 00:04:11;;;;;;;6.85;1.70;;;14.30;99.90;;;;;;5068443;28;20981;-82
2023/03/17 00:06:39;;;;;;;5.50;1.70;;;14.20;99.90;;;;;;5053985;28;20469;-83
2023/03/17 00:09:16;;;;;;;6.67;1.83;;;14.20;99.90;;;;;;5067006;28;20425;-83
2023/03/17 00:11:47;;;;;;;5.53;1.80;;;14.20;99.90;;;;;;5070368;28;20403;-84
2023/03/17 00:14:15;;;;;;;6.97;1.88;;;14.20;99.90;;;;;;5068494;28;20499;-83
2023/03/17 00:16:49;;;;;;;5.07;1.55;;;14.10;99.90;;;;;;5052616;28;20431;-83
2023/03/17 00:19:43;;;;;;;8.07;1.90;;;14.00;99.90;;;;;;5051994;28;20410;-83
2023/03/17 00:22:17;;;;;;;8.60;1.92;;;14.10;99.90;;;;;;5049902;28;20992;-83
2023/03/17 00:24:43;;;;;;;5.13;1.67;;;14.10;99.90;;;;;;5067431;28;20428;-83
2023/03/17 00:27:14;;;;;;;4.53;1.58;;;14.00;99.90;;;;;;5054002;28;20406;-83
2023/03/17 00:29:43;;;;;;;6.40;1.92;;;13.90;99.90;;;;;;5051502;28;20407;-83
2023/03/17 00:32:21;;;;;;;5.53;1.60;;;14.00;99.90;;;;;;5077536;28;20488;-82
2023/03/17 00:34:47;;;;;;;5.97;1.80;;;14.00;99.90;;;;;;5052708;28;20403;-83
2023/03/17 00:37:20;;;;;;;7.22;1.90;;;14.00;99.90;;;;;;5052133;28;21204;-83
2023/03/17 00:39:46;;;;;;;7.28;1.95;;;14.00;99.90;;;;;;5048577;28;20416;-83
2023/03/17 00:42:13;;;;;;;7.27;2.20;;;14.10;99.90;;;;;;5070272;28;20399;-83
2023/03/17 00:44:40;;;;;;;6.47;1.83;;;14.10;99.90;;;;;;5070979;28;20417;-82
2023/03/17 00:47:11;;;;;;;6.80;2.10;;;14.10;99.90;;;;;;5069701;28;20414;-83
2023/03/17 00:49:38;;;;;;;8.30;1.85;;;14.00;99.90;;;;;;5042172;28;20409;-83
2023/03/17 00:52:05;;;;;;;7.90;2.13;;;14.00;99.90;;;;;;5072652;28;20392;-83
2023/03/17 00:54:32;;;;;;;9.13;2.13;;;14.00;99.90;;;;;;5074136;28;20403;-84
2023/03/17 00:57:00;;;;;;;8.52;2.30;;;13.90;99.90;;;;;;5048788;28;20495;-83
2023/03/17 00:59:34;;;;;;;6.90;2.00;;;14.00;99.90;;;;;;5051293;28;20415;-83
2023/03/17 01:02:23;;;;;;;8.15;2.20;;;14.00;99.90;;;;;;5046640;28;21875;-83
2023/03/17 01:04:52;;;;;;;6.70;2.15;;;14.00;99.90;;;;;;5051330;28;21074;-83
2023/03/17 01:07:19;;;;;;;6.70;2.33;;;14.00;99.90;;;;;;5050226;28;20407;-83
2023/03/17 01:09:46;;;;;;;6.60;2.40;;;14.00;99.90;;;;;;5047594;28;20444;-84
2023/03/17 01:12:14;;;;;;;8.20;2.40;;;14.00;99.90;;;;;;5053901;28;20505;-83
2023/03/17 01:14:40;;;;;;;7.18;2.10;;;14.00;99.90;;;;;;5051588;28;20407;-84
2023/03/17 01:17:16;;;;;;;9.03;1.93;;;14.00;99.90;;;;;;5045952;28;20406;-83
2023/03/17 01:19:44;;;;;;;10.25;2.60;;;14.00;99.90;;;;;;5051397;28;20412;-83
2023/03/17 01:22:11;;;;;;;8.85;2.42;;;14.00;99.90;;;;;;5051828;28;20403;-83
2023/03/17 01:24:48;;;;;;;8.20;2.35;;;14.00;99.90;;;;;;5047494;28;20420;-84
2023/03/17 01:27:15;;;;;;;7.73;2.20;;;14.00;99.90;;;;;;5051212;28;20410;-83
2023/03/17 01:29:41;;;;;;;9.90;2.47;;;14.00;99.90;;;;;;5068727;28;20433;-83
2023/03/17 01:32:08;;;;;;;9.18;2.58;;;14.00;99.90;;;;;;5040981;28;20433;-83
2023/03/17 01:34:36;;;;;;;7.50;2.50;;;14.00;99.90;;;;;;5052280;28;20399;-83
2023/03/17 01:37:04;;;;;;;9.77;2.80;;;14.10;99.90;;;;;;5046773;28;20792;-83
2023/03/17 01:39:30;;;;;;;12.68;2.58;;;14.10;99.90;;;;;;5050383;28;20414;-83
2023/03/17 01:42:00;;;;;;;11.23;2.50;;;14.10;99.90;;;;;;5048715;28;22475;-83
2023/03/17 01:44:26;;;;;;;10.33;2.50;;;14.10;99.90;;;;;;5068804;28;20871;-82
2023/03/17 01:46:53;;;;;;;9.75;2.38;;;14.10;99.90;;;;;;5050506;28;20409;-83
2023/03/17 01:49:36;;;;;;;12.95;2.45;;;14.10;99.90;;;;;;5061987;28;20461;-84
2023/03/17 01:52:17;;;;;;;10.55;2.30;;;14.10;99.90;;;;;;5055184;28;20402;-84
2023/03/17 01:55:08;;;;;;;10.73;2.33;;;14.10;99.90;;;;;;5052864;28;20411;-83
2023/03/17 01:57:52;;;;;;;9.23;2.55;;;14.10;99.90;;;;;;5073403;28;20400;-84
2023/03/17 02:00:23;;;;;;;8.88;2.10;;;14.10;99.90;;;;;;5050038;28;20523;-83
2023/03/17 02:02:57;;;;;;;8.85;2.35;;;14.10;99.90;;;;;;5049697;28;20433;-83
2023/03/17 02:05:30;;;;;;;8.77;2.60;;;14.10;99.90;;;;;;5068328;28;20411;-82
2023/03/17 02:07:59;;;;;;;11.07;2.30;;;14.10;99.90;;;;;;5050178;28;20408;-84
2023/03/17 02:10:28;;;;;;;11.52;2.33;;;14.10;99.90;;;;;;5045707;28;20404;-84
2023/03/17 02:13:01;;;;;;;8.45;2.63;;;14.10;99.90;;;;;;5054527;28;20405;-84
2023/03/17 02:15:48;;;;;;;13.95;2.78;;;14.10;99.90;;;;;;5055063;28;20438;-84
2023/03/17 02:18:17;;;;;;;9.50;2.45;;;14.20;99.90;;;;;;5048013;28;20408;-83
2023/03/17 02:20:46;;;;;;;10.57;2.40;;;14.20;99.90;;;;;;5049380;28;20408;-82
2023/03/17 02:23:23;;;;;;;11.88;2.90;;;14.20;99.90;;;;;;5053208;28;20436;-83
2023/03/17 02:25:53;;;;;;;11.75;2.50;;;14.30;99.90;;;;;;5043493;28;20451;-83
2023/03/17 02:28:29;;;;;;;9.38;2.60;;;14.20;99.90;;;;;;5084311;28;20433;-83
2023/03/17 02:30:56;;;;;;;10.18;2.60;;;14.20;99.90;;;;;;5052356;28;20897;-84
2023/03/17 02:33:23;;;;;;;9.13;2.35;;;14.20;99.90;;;;;;5047416;28;20533;-84
2023/03/17 02:35:49;;;;;;;14.07;2.88;;;14.30;99.90;;;;;;5064268;28;20431;-83
2023/03/17 02:38:21;;;;;;;14.02;2.80;;;14.30;99.90;;;;;;5047253;28;20413;-83
2023/03/17 02:40:47;;;;;;;14.40;3.25;;;14.30;99.90;;;;;;5051809;28;20452;-83
2023/03/17 02:43:14;;;;;;;15.80;2.60;;;14.40;99.90;;;;;;5048942;28;20945;-84
2023/03/17 02:45:40;;;;;;;12.27;2.90;;;14.40;99.90;;;;;;5047746;28;20427;-85
2023/03/17 02:48:09;;;;;;;10.00;2.90;;;14.50;99.90;;;;;;5047132;28;20403;-84
2023/03/17 02:50:36;;;;;;;12.80;3.10;;;14.40;99.90;;;;;;5051941;28;20419;-84
2023/03/17 02:53:03;;;;;;;16.27;3.13;;;14.40;99.90;;;;;;5051069;28;20403;-83
2023/03/17 02:55:30;;;;;;;12.82;3.20;;;14.40;99.90;;;;;;5054902;28;20473;-84
2023/03/17 02:57:57;;;;;;;12.70;3.00;;;14.40;99.90;;;;;;5054137;28;20399;-84
2023/03/17 03:00:25;;;;;;;14.70;3.25;;;14.40;99.90;;;;;;5054525;28;20411;-84
2023/03/17 03:03:02;;;;;;;14.20;3.28;;;14.40;99.90;;;;;;5053799;28;20405;-83
2023/03/17 03:05:28;;;;;;;14.63;3.13;;;14.50;99.90;;;;;;5083845;28;20419;-83
2023/03/17 03:07:55;;;;;;;16.70;3.50;;;14.40;99.90;;;;;;5049589;28;20411;-84
2023/03/17 03:10:21;;;;;;;12.10;3.03;;;14.20;99.90;;;;;;5054545;28;20462;-84
2023/03/17 03:12:47;;;;;;;18.90;3.53;;;14.00;99.90;;;;;;5051384;28;20427;-86
2023/03/17 03:15:16;;;;;;;17.87;3.80;;;13.80;99.90;;;;;;5053530;28;21199;-83
2023/03/17 03:17:42;;;;;;;15.60;3.40;;;13.70;99.90;;;;;;5051746;28;20411;-83
2023/03/17 03:20:10;;;;;;;14.70;3.35;;;13.60;99.90;;;;;;5073792;28;20399;-84
2023/03/17 03:22:37;;;;;;;22.57;4.03;;;13.40;99.90;;;;;;5047132;28;20808;-84
2023/03/17 03:25:11;;;;;;;15.40;3.80;;;13.30;99.90;;;;;;5056449;28;20415;-85
2023/03/17 03:27:43;;;;;;;23.37;4.67;;;13.20;99.90;;;;;;5051843;28;20501;-84
2023/03/17 03:30:12;;;;;;;18.13;4.60;;;13.10;99.90;;;;;;5053407;28;20434;-84
2023/03/17 03:32:38;;;;;;;21.25;5.13;;;13.10;99.90;;;;;;5066301;28;20430;-85
2023/03/17 03:35:05;;;;;;;23.08;5.45;;;13.00;99.90;;;;;;5052327;28;20412;-84
2023/03/17 03:37:32;;;;;;;18.42;5.25;;;13.00;99.90;;;;;;5069342;28;20418;-84
2023/03/17 03:40:06;;;;;;;18.85;5.22;;;13.00;99.90;;;;;;5071204;28;20459;-85
2023/03/17 03:42:32;;;;;;;17.13;5.50;;;12.90;99.90;;;;;;5056896;28;20411;-83
2023/03/17 03:45:01;;;;;;;15.95;4.50;;;12.90;99.90;;;;;;5049669;28;20401;-83
2023/03/17 03:47:29;;;;;;;11.90;3.05;;;12.80;99.90;;;;;;5050989;28;20491;-84
2023/03/17 03:49:55;;;;;;;12.27;3.05;;;12.70;99.90;;;;;;5051534;28;20413;-83
2023/03/17 03:52:22;;;;;;;12.17;2.90;;;12.60;99.90;;;;;;5052059;28;20482;-84
2023/03/17 03:54:54;;;;;;;12.25;2.80;;;12.60;99.90;;;;;;5052994;28;20411;-83
2023/03/17 03:57:23;;;;;;;10.52;2.88;;;12.60;99.90;;;;;;5071997;28;20422;-83
2023/03/17 03:59:52;;;;;;;14.98;3.03;;;12.50;99.90;;;;;;5069045;28;20574;-83
2023/03/17 04:02:19;;;;;;;14.65;3.40;;;12.50;99.90;;;;;;5063304;28;20396;-84
2023/03/17 04:04:45;;;;;;;13.97;3.03;;;12.60;99.90;;;;;;5057667;28;20428;-84
2023/03/17 04:07:12;;;;;;;11.65;3.30;;;12.60;99.90;;;;;;5052484;28;20409;-83
2023/03/17 04:09:38;;;;;;;11.40;2.92;;;12.50;99.90;;;;;;5054216;28;20410;-84
2023/03/17 04:12:24;;;;;;;16.70;3.40;;;12.50;99.90;;;;;;5073000;28;20415;-84
2023/03/17 04:15:12;;;;;;;12.55;3.15;;;12.50;99.90;;;;;;5067318;28;20426;-84
2023/03/17 04:17:41;;;;;;;12.85;3.05;;;12.50;99.90;;;;;;5069373;28;20494;-84
2023/03/17 04:20:08;;;;;;;14.63;3.17;;;12.40;99.90;;;;;;5053634;28;20970;-84
2023/03/17 04:22:34;;;;;;;16.20;3.50;;;12.40;99.90;;;;;;5068195;28;20409;-84
2023/03/17 04:25:01;;;;;;;15.27;3.67;;;12.40;99.90;;;;;;5083417;28;20424;-84
2023/03/17 04:27:27;;;;;;;13.40;2.92;;;12.50;99.90;;;;;;5065482;28;20392;-84
2023/03/17 04:29:53;;;;;;;17.33;3.40;;;12.50;99.90;;;;;;5051203;28;20411;-85
2023/03/17 04:32:20;;;;;;;16.23;3.72;;;12.50;99.90;;;;;;5067393;28;20502;-85
2023/03/17 04:34:51;;;;;;;13.17;3.23;;;12.50;99.90;;;;;;5055963;28;20418;-85
2023/03/17 04:37:17;;;;;;;14.63;3.08;;;12.50;99.90;;;;;;5044228;28;20922;-85
2023/03/17 04:39:43;;;;;;;11.93;3.35;;;12.50;99.90;;;;;;5050362;28;20761;-85
2023/03/17 04:42:10;;;;;;;12.05;3.20;;;12.50;99.90;;;;;;5067017;28;20414;-85
2023/03/17 04:44:42;;;;;;;12.77;3.13;;;12.60;99.90;;;;;;5047029;28;20436;-85
2023/03/17 04:47:10;;;;;;;8.88;2.70;;;12.60;99.90;;;;;;5051478;28;20414;-85
2023/03/17 04:49:36;;;;;;;13.85;3.58;;;12.60;99.90;;;;;;5057906;28;20413;-85
2023/03/17 04:52:03;;;;;;;12.68;3.20;;;12.60;99.90;;;;;;5067659;28;20404;-85
2023/03/17 04:54:31;;;;;;;15.77;3.30;;;12.60;99.90;;;;;;5052142;28;20406;-85
2023/03/17 04:56:57;;;;;;;16.60;3.63;;;12.60;99.90;;;;;;5049730;28;20410;-85
2023/03/17 04:59:23;;;;;;;10.20;2.90;;;12.50;99.90;;;;;;5051193;28;20415;-86
2023/03/17 05:01:51;;;;;;;13.63;3.22;;;12.60;99.90;;;;;;5045944;28;20481;-85
2023/03/17 05:04:18;;;;;;;15.85;3.50;;;12.60;99.90;;;;;;5050951;28;20488;-85
2023/03/17 05:06:45;;;;;;;12.98;2.95;;;12.70;99.90;;;;;;5049327;28;20472;-85
2023/03/17 05:09:12;;;;;;;15.30;3.57;;;12.60;99.90;;;;;;5048540;28;20413;-85
2023/03/17 05:11:40;;;;;;;12.20;2.83;;;12.70;99.90;;;;;;5049638;28;20435;-86
2023/03/17 05:14:09;;;;;;;15.00;3.10;;;12.70;99.90;;;;;;5052010;28;20404;-85
2023/03/17 05:16:35;;;;;;;19.43;3.60;;;12.70;99.90;;;;;;5049201;28;20494;-85
2023/03/17 05:19:02;;;;;;;12.00;2.92;;;12.70;99.90;;;;;;5047901;28;20404;-85
2023/03/17 05:21:29;;;;;;;15.85;2.85;;;12.70;99.90;;;;;;5052807;28;20484;-85
2023/03/17 05:23:58;;;;;;;15.20;3.13;;;12.70;99.90;;;;;;5049084;28;20401;-85
2023/03/17 05:26:25;;;;;;;15.50;3.15;;;12.70;99.90;;;;;;5058339;28;20490;-85
2023/03/17 05:28:56;;;;;;;18.85;3.38;;;12.60;99.90;;;;;;5066874;28;20406;-85
2023/03/17 05:31:22;;;;;;;14.60;3.08;;;12.60;99.90;;;;;;5050438;28;21166;-85
2023/03/17 05:33:49;;;;;;;10.55;2.60;;;12.70;99.90;;;;;;5047569;28;20406;-85
2023/03/17 05:36:17;;;;;;;13.32;3.20;;;12.70;99.90;;;;;;5048590;28;20476;-85
2023/03/17 05:38:44;;;;;;;12.20;3.08;;;12.70;99.90;;;;;;5044148;28;20499;-85
2023/03/17 05:41:11;;;;;;;10.88;3.10;;;12.60;99.90;;;;;;5064941;28;20883;-85
2023/03/17 05:43:38;;;;;;;17.45;3.40;;;12.60;99.90;;;;;;5051078;28;20412;-85
2023/03/17 05:46:09;;;;;;;10.43;2.78;;;12.70;99.90;;;;;;5049272;28;20897;-85
2023/03/17 05:48:36;;;;;;;10.98;2.85;;;12.70;99.90;;;;;;5045619;28;20410;-85
2023/03/17 05:51:07;;;;;;;15.50;2.78;;;12.70;99.90;;;;;;5068457;28;20411;-85
2023/03/17 05:53:35;;;;;;;11.88;2.70;;;12.70;99.90;;;;;;5050600;28;20435;-85
2023/03/17 05:56:05;;;;;;;12.32;3.05;;;12.70;99.90;;;;;;5066810;28;20447;-85
2023/03/17 05:58:31;;;;;;;11.27;2.83;;;12.70;99.90;;;;;;5050456;28;20403;-85
2023/03/17 06:01:00;;;;;;;12.38;2.90;;;12.70;99.90;;;;;;5064558;28;20470;-85
2023/03/17 06:03:30;;;;;;;10.82;2.60;;;12.80;99.90;;;;;;5050051;28;20412;-85
2023/03/17 06:05:56;;;;;;;10.45;2.67;;;12.80;99.90;;;;;;5048418;28;20504;-85
2023/03/17 06:08:22;;;;;;;15.83;3.30;;;12.90;99.90;;;;;;5044532;28;20396;-85
2023/03/17 06:10:49;;;;;;;19.35;3.25;;;12.90;99.90;;;;;;5050155;28;20421;-85
2023/03/17 06:13:15;;;;;;;15.13;2.95;;;13.00;99.90;;;;;;5051772;28;20407;-85
2023/03/17 06:15:48;;;;;;;16.23;3.43;;;13.10;99.90;;;;;;5053121;28;20430;-85
2023/03/17 06:18:15;;;;;;;14.65;3.45;;;13.00;99.90;;;;;;5049789;28;20801;-85
2023/03/17 06:20:41;;;;;;;17.08;3.63;;;13.10;99.90;;;;;;5066233;28;20410;-85
2023/03/17 06:23:10;;;;;;;12.90;3.00;;;13.10;99.90;;;;;;5064686;28;20468;-85
2023/03/17 06:25:37;;;;;;;14.02;3.58;;;13.10;99.90;;;;;;5046318;28;20408;-86
2023/03/17 06:28:06;;;;;;;13.27;3.17;;;13.10;99.90;;;;;;5049347;28;20418;-85
2023/03/17 06:30:35;;;;;;;11.77;3.03;;;13.10;99.90;;;;;;5044555;28;20427;-85
2023/03/17 06:33:04;;;;;;;12.10;3.10;;;13.10;99.90;;;;;;5048065;28;20409;-86
2023/03/17 06:35:32;;;;;;;17.60;3.70;;;13.20;99.90;;;;;;5050143;28;20407;-86
2023/03/17 06:38:02;;;;;;;12.43;3.10;;;13.30;99.90;;;;;;5046490;28;20455;-85
2023/03/17 06:40:29;;;;;;;16.70;3.42;;;13.40;99.90;;;;;;5061406;28;21054;-85
2023/03/17 06:42:55;;;;;;;16.00;3.08;;;13.30;99.90;;;;;;5049877;28;20423;-85
2023/03/17 06:45:21;;;;;;;9.80;2.30;;;13.40;99.90;;;;;;5049341;28;20828;-85
2023/03/17 06:47:49;;;;;;;11.88;2.85;;;13.40;99.90;;;;;;5078442;28;20432;-85
2023/03/17 06:50:15;;;;;;;9.05;2.80;;;13.30;99.90;;;;;;5063671;28;20410;-86
2023/03/17 06:52:42;;;;;;;10.00;3.00;;;13.30;99.90;;;;;;5049901;28;21383;-85
2023/03/17 06:55:09;;;;;;;11.98;2.97;;;13.40;99.90;;;;;;5049630;28;20422;-85
2023/03/17 06:57:36;;;;;;;11.30;2.70;;;13.30;99.90;;;;;;5050878;28;20403;-85
2023/03/17 07:00:05;;;;;;;15.45;3.13;;;13.30;99.90;;;;;;5079613;28;20417;-86
2023/03/17 07:02:32;;;;;;;12.25;2.70;;;13.40;99.90;;;;;;5060999;28;20416;-85
2023/03/17 07:04:59;;;;;;;13.70;3.00;;;13.40;99.90;;;;;;5049095;28;20873;-85
2023/03/17 07:07:34;;;;;;;12.85;2.75;;;13.40;99.90;;;;;;5076138;28;21187;-85
2023/03/17 07:10:01;;;;;;;9.05;2.70;;;13.40;99.90;;;;;;5053504;28;20500;-85
2023/03/17 07:12:27;;;;;;;10.07;2.67;;;13.50;99.90;;;;;;5049281;28;20406;-85
2023/03/17 07:14:54;;;;;;;11.27;3.00;;;13.50;99.90;;;;;;5048845;28;20469;-85
2023/03/17 07:17:20;;;;;;;11.35;3.15;;;13.40;99.90;;;;;;5061984;28;20411;-85
2023/03/17 07:19:46;;;;;;;11.10;3.13;;;13.50;99.90;;;;;;5049823;28;20418;-85
2023/03/17 07:22:13;;;;;;;10.38;2.75;;;13.30;99.90;;;;;;5047072;28;20484;-85
2023/03/17 07:24:41;;;;;;;13.48;2.78;;;13.30;99.90;;;;;;5066676;28;20443;-85
2023/03/17 07:27:08;;;;;;;13.13;2.90;;;13.40;99.90;;;;;;5061204;28;20423;-86
2023/03/17 07:29:43;;;;;;;11.82;2.90;;;13.50;99.90;;;;;;5049243;28;20415;-86
2023/03/17 07:32:10;;;;;;;10.63;2.75;;;13.40;99.90;;;;;;5044052;28;20409;-86
2023/03/17 07:34:39;;;;;;;10.00;2.70;;;13.50;99.90;;;;;;5050086;28;20402;-86
2023/03/17 07:37:06;;;;;;;11.57;2.50;;;13.60;99.90;;;;;;5055038;28;20490;-85
2023/03/17 07:39:33;;;;;;;12.20;2.55;;;13.60;99.90;;;;;;5081716;28;20387;-86
2023/03/17 07:41:59;;;;;;;12.02;2.70;;;13.50;99.90;;;;;;5089119;28;20502;-86
2023/03/17 07:44:26;;;;;;;12.75;2.70;;;13.70;99.90;;;;;;5056662;28;20523;-86
2023/03/17 07:46:59;;;;;;;11.25;2.97;;;13.80;99.90;;;;;;5044981;28;20405;-86
2023/03/17 07:49:26;;;;;;;11.40;2.83;;;13.60;99.90;;;;;;5059491;28;20483;-85
2023/03/17 07:51:52;;;;;;;13.45;2.80;;;13.70;99.90;;;;;;5067706;28;20405;-86
2023/03/17 07:54:19;;;;;;;7.43;2.37;;;13.80;99.90;;;;;;5062062;28;20401;-86
2023/03/17 07:56:45;;;;;;;16.70;2.80;;;13.80;99.90;;;;;;5067230;28;21159;-86
2023/03/17 07:59:11;;;;;;;12.50;2.67;;;13.80;99.90;;;;;;5049660;28;20408;-86
2023/03/17 08:01:38;;;;;;;9.25;2.50;;;14.00;99.90;;;;;;5072757;28;20407;-86
2023/03/17 08:04:06;;;;;;;10.88;2.42;;;14.10;99.90;;;;;;5055283;28;20984;-86
2023/03/17 08:06:34;;;;;;;11.63;2.80;;;14.20;99.90;;;;;;5052682;28;20492;-86
2023/03/17 08:09:00;;;;;;;11.38;2.63;;;13.90;99.90;;;;;;5053230;28;20438;-86
2023/03/17 08:11:34;;;;;;;21.48;3.20;;;13.80;99.90;;;;;;5064416;28;20439;-86
2023/03/17 08:14:10;;;;;;;11.73;2.42;;;14.00;99.90;;;;;;5050806;28;20407;-87
2023/03/17 08:16:37;;;;;;;10.43;2.47;;;13.70;99.90;;;;;;5052579;28;20435;-86
2023/03/17 08:19:09;;;;;;;10.73;2.55;;;13.60;99.90;;;;;;5053037;28;21099;-86
2023/03/17 08:21:36;;;;;;;10.73;2.55;;;13.50;99.90;;;;;;5051666;28;20423;-86
2023/03/17 08:24:05;;;;;;;11.18;2.63;;;13.40;99.90;;;;;;5068679;28;20484;-86
2023/03/17 08:26:33;;;;;;;11.77;2.78;;;13.70;99.90;;;;;;5054268;28;21343;-86
2023/03/17 08:29:00;;;;;;;8.68;2.47;;;13.70;99.90;;;;;;5047078;28;20984;-85
2023/03/17 08:31:32;;;;;;;11.13;2.40;;;13.60;99.90;;;;;;5050979;28;20416;-86
2023/03/17 08:34:03;;;;;;;10.53;2.43;;;13.80;99.90;;;;;;5047578;28;21050;-86
2023/03/17 08:36:30;;;;;;;9.02;2.63;;;13.70;99.90;;;;;;5061567;28;20408;-85
2023/03/17 08:38:57;;;;;;;11.77;2.63;;;13.80;99.90;;;;;;5045835;28;20972;-85
2023/03/17 08:41:27;;;;;;;8.43;2.63;;;13.70;99.90;;;;;;5052207;28;20782;-85
2023/03/17 08:43:54;;;;;;;8.02;2.30;;;13.80;99.90;;;;;;5049549;28;20496;-84
2023/03/17 08:46:26;;;;;;;8.52;2.13;;;13.80;99.90;;;;;;5051153;28;20407;-85
2023/03/17 08:48:58;;;;;;;9.05;2.45;;;14.00;99.90;;;;;;5062224;28;20410;-83
2023/03/17 08:51:35;;;;;;;11.70;2.88;;;14.00;99.90;;;;;;5062368;28;20416;-86
2023/03/17 08:54:05;;;;;;;10.00;2.50;;;14.10;99.90;;;;;;5042114;28;20405;-85
2023/03/17 08:56:35;;;;;;;9.00;2.40;;;14.20;99.90;;;;;;5051185;28;20407;-85
2023/03/17 08:59:05;;;;;;;7.82;2.03;;;14.10;99.90;;;;;;5053476;28;20914;-85
2023/03/17 09:01:34;;;;;;;9.60;2.30;;;14.30;99.90;;;;;;5051666;28;20415;-85
2023/03/17 09:04:03;;;;;;;11.93;2.50;;;14.30;99.90;;;;;;5062055;28;20452;-86
2023/03/17 09:06:31;;;;;;;11.95;2.72;;;14.40;99.90;;;;;;5047176;28;20403;-85
2023/03/17 09:09:00;;;;;;;9.25;2.40;;;14.60;99.90;;;;;;5073881;28;20442;-86
2023/03/17 09:11:31;;;;;;;8.57;2.13;;;14.50;99.90;;;;;;5084276;28;20389;-85
2023/03/17 09:13:59;;;;;;;8.32;2.33;;;14.60;99.90;;;;;;5067915;28;20407;-86
2023/03/17 09:16:33;;;;;;;5.25;1.73;;;15.00;99.90;;;;;;5063730;28;20400;-86
2023/03/17 09:19:02;;;;;;;11.63;2.30;;;15.10;99.90;;;;;;5049508;28;20419;-85
2023/03/17 09:21:36;;;;;;;9.13;2.23;;;15.10;99.90;;;;;;5041098;28;21198;-86
2023/03/17 09:24:03;;;;;;;9.50;2.38;;;15.00;99.90;;;;;;5047485;28;20463;-86
2023/03/17 09:26:30;;;;;;;7.40;1.95;;;14.80;99.90;;;;;;5064759;28;20408;-87
2023/03/17 09:29:09;;;;;;;8.43;2.17;;;14.70;99.90;;;;;;5071454;28;20407;-87
2023/03/17 09:31:37;;;;;;;6.63;2.10;;;15.00;99.90;;;;;;5055592;28;20407;-86
2023/03/17 09:34:05;;;;;;;8.10;2.10;;;15.00;99.90;;;;;;5060522;28;20393;-86
2023/03/17 09:36:35;;;;;;;12.70;2.43;;;15.10;99.90;;;;;;5078318;28;20907;-86
2023/03/17 09:39:01;;;;;;;8.48;2.30;;;15.30;99.90;;;;;;5052768;28;20856;-85
2023/03/17 09:41:56;;;;;;;8.55;2.38;;;15.50;99.90;;;;;;5054341;28;20415;-85
2023/03/17 09:45:05;;;;;;;10.23;2.50;;;15.40;99.90;;;;;;5045360;28;20415;-86
2023/03/17 09:47:59;;;;;;;8.68;2.10;;;15.30;99.90;;;;;;5045925;28;20438;-85
2023/03/17 09:50:36;;;;;;;7.15;2.00;;;15.30;99.90;;;;;;5053810;28;21170;-87
2023/03/17 09:53:53;;;;;;;15.95;2.70;;;15.70;99.90;;;;;;5043689;28;20401;-86
2023/03/17 09:56:20;;;;;;;8.73;2.40;;;16.20;99.90;;;;;;5058904;28;20419;-86
2023/03/17 09:59:02;;;;;;;7.95;2.20;;;16.00;99.90;;;;;;5051748;28;20465;-86
2023/03/17 10:01:31;;;;;;;7.78;2.15;;;15.50;99.90;;;;;;5045038;28;20400;-88
2023/03/17 10:03:58;;;;;;;8.90;2.28;;;15.50;99.90;;;;;;5067910;28;20407;-87
2023/03/17 10:07:02;;;;;;;9.38;2.35;;;15.40;99.90;;;;;;5055016;28;20952;-87
2023/03/17 10:09:43;;;;;;;8.63;2.43;;;15.60;99.90;;;;;;5046398;28;20519;-86
2023/03/17 10:13:09;;;;;;;8.73;2.22;;;15.50;99.90;;;;;;5041591;28;20417;-87
2023/03/17 10:16:05;;;;;;;7.65;2.15;;;15.40;99.90;;;;;;5013543;28;20412;-86
2023/03/17 10:19:09;;;;;;;7.30;2.30;;;15.40;99.90;;;;;;5045463;28;20418;-86
2023/03/17 10:21:52;;;;;;;8.60;2.20;;;15.40;99.90;;;;;;5055043;28;20407;-87
2023/03/17 10:24:20;;;;;;;5.75;1.90;;;15.30;99.90;;;;;;5045895;28;20413;-87
2023/03/17 10:26:56;;;;;;;8.77;2.05;;;15.10;99.90;;;;;;5050634;28;20400;-85
2023/03/17 10:29:23;;;;;;;6.85;2.22;;;15.00;99.90;;;;;;5086038;28;20464;-88
2023/03/17 10:31:53;;;;;;;5.22;1.70;;;15.10;99.90;;;;;;5069733;28;20438;-88
2023/03/17 10:34:33;;;;;;;6.55;2.10;;;15.00;99.90;;;;;;5046546;28;20412;-87
2023/03/17 10:37:21;;;;;;;8.10;1.77;;;15.10;99.90;;;;;;5040662;28;20399;-86
2023/03/17 10:39:53;;;;;;;6.10;1.90;;;15.40;99.90;;;;;;5046944;28;20403;-87
2023/03/17 10:42:34;;;;;;;6.70;1.83;;;15.40;99.90;;;;;;5050803;28;20405;-88
2023/03/17 10:45:37;;;;;;;6.18;1.70;;;15.10;99.90;;;;;;5052755;28;20433;-87
2023/03/17 10:48:08;;;;;;;8.25;2.10;;;14.90;99.90;;;;;;5046430;28;20502;-87
2023/03/17 10:50:39;;;;;;;8.35;2.10;;;14.60;99.90;;;;;;5069692;28;20871;-84
2023/03/17 10:53:26;;;;;;;8.23;2.27;;;14.60;99.90;;;;;;5077611;28;20477;-87
2023/03/17 10:56:29;;;;;;;6.00;1.97;;;14.70;99.90;;;;;;5050625;28;20546;-86
2023/03/17 10:59:04;;;;;;;7.85;2.30;;;14.80;99.90;;;;;;5043232;28;20441;-86
2023/03/17 11:01:37;;;;;;;12.35;2.30;;;14.80;99.90;;;;;;5047100;28;20464;-86
2023/03/17 11:04:34;;;;;;;9.52;2.10;;;14.80;99.90;;;;;;5043308;28;20496;-86
2023/03/17 11:07:37;;;;;;;8.63;2.20;;;14.60;99.90;;;;;;5041258;28;20407;-86
2023/03/17 11:10:22;;;;;;;8.32;2.33;;;14.60;99.90;;;;;;5046499;28;20427;-86
2023/03/17 11:13:01;;;;;;;7.47;2.20;;;14.70;99.90;;;;;;5060994;28;20408;-86
2023/03/17 11:15:53;;;;;;;7.53;2.05;;;14.80;99.90;;;;;;5048419;28;20411;-86
2023/03/17 11:18:35;;;;;;;5.68;2.17;;;14.90;99.90;;;;;;5069101;28;20418;-86
2023/03/17 11:21:08;;;;;;;7.00;2.30;;;14.90;99.90;;;;;;5051661;28;20416;-86
2023/03/17 11:24:03;;;;;;;7.78;2.13;;;14.90;99.90;;;;;;5069620;28;20401;-86
2023/03/17 11:27:02;;;;;;;9.48;2.10;;;15.20;99.90;;;;;;5043202;28;20716;-86
2023/03/17 11:30:09;;;;;;;7.85;2.28;;;15.50;99.90;;;;;;5041602;28;20442;-86
2023/03/17 11:33:15;;;;;;;7.40;2.15;;;15.50;99.90;;;;;;5052724;28;20478;-86
2023/03/17 11:35:53;;;;;;;8.55;2.20;;;15.30;99.90;;;;;;5049042;28;20390;-85
2023/03/17 11:38:50;;;;;;;8.13;2.05;;;15.40;99.90;;;;;;5050296;28;20410;-86
2023/03/17 11:42:00;;;;;;;6.07;1.70;;;15.40;99.90;;;;;;5071144;28;20406;-86
2023/03/17 11:45:09;;;;;;;10.60;2.08;;;15.20;99.90;;;;;;5056399;28;20403;-85
2023/03/17 11:48:12;;;;;;;5.72;1.90;;;15.20;99.90;;;;;;5052111;28;20393;-86
2023/03/17 11:51:01;;;;;;;9.55;2.03;;;15.00;99.90;;;;;;5069406;28;20446;-85
2023/03/17 11:54:18;;;;;;;6.88;1.80;;;14.70;99.90;;;;;;5069184;28;20407;-86
2023/03/17 11:56:51;;;;;;;9.70;2.30;;;14.30;99.90;;;;;;5055020;28;20420;-86
2023/03/17 11:59:40;;;;;;;9.32;2.22;;;14.20;99.90;;;;;;5056333;28;20454;-86
2023/03/17 12:02:24;;;;;;;7.25;1.95;;;14.50;99.90;;;;;;5055793;28;20400;-85
2023/03/17 12:05:03;;;;;;;9.88;2.13;;;14.50;99.90;;;;;;5050158;28;20511;-86
2023/03/17 12:07:46;;;;;;;7.03;2.08;;;14.50;99.90;;;;;;5069544;28;20400;-85
2023/03/17 12:10:35;;;;;;;6.17;1.83;;;14.40;99.90;;;;;;5064937;28;20417;-85
2023/03/17 12:13:34;;;;;;;6.30;1.98;;;14.40;99.90;;;;;;5073450;28;20807;-86
2023/03/17 12:16:25;;;;;;;9.45;2.38;;;14.40;99.90;;;;;;5057576;28;20399;-86
2023/03/17 12:19:43;;;;;;;7.03;2.15;;;14.40;99.90;;;;;;5062236;28;20395;-86
2023/03/17 12:22:27;;;;;;;7.25;2.03;;;14.50;99.90;;;;;;5070016;28;20491;-87
2023/03/17 12:25:22;;;;;;;7.47;2.20;;;14.60;99.90;;;;;;5035956;28;20509;-86
2023/03/17 12:28:19;;;;;;;6.55;2.00;;;14.40;99.90;;;;;;5046101;28;20411;-86
2023/03/17 12:30:58;;;;;;;6.78;1.98;;;14.40;99.90;;;;;;5054692;28;20431;-86
2023/03/17 12:33:59;;;;;;;9.50;2.20;;;14.40;99.90;;;;;;5072458;28;20495;-86
2023/03/17 12:36:27;;;;;;;6.05;1.92;;;14.30;99.90;;;;;;5055375;28;20411;-86
2023/03/17 12:39:10;;;;;;;7.97;2.08;;;14.20;99.90;;;;;;5071901;28;20983;-85
2023/03/17 12:42:32;;;;;;;7.03;1.92;;;14.20;99.90;;;;;;5065046;28;20447;-85
2023/03/17 12:45:39;;;;;;;6.45;1.95;;;14.00;99.90;;;;;;5048159;28;20408;-85
2023/03/17 12:48:36;;;;;;;7.97;2.08;;;14.00;99.90;;;;;;5055408;28;20407;-85
2023/03/17 12:51:42;;;;;;;6.23;1.80;;;14.00;99.90;;;;;;5053571;28;20415;-87
2023/03/17 12:54:30;;;;;;;8.00;2.20;;;14.00;99.90;;;;;;5054526;28;20414;-86
2023/03/17 12:57:14;;;;;;;8.52;2.28;;;14.70;99.90;;;;;;5061923;28;20912;-86
2023/03/17 12:59:48;;;;;;;6.23;2.10;;;14.70;99.90;;;;;;5065529;28;20552;-85
2023/03/17 13:02:37;;;;;;;5.93;1.90;;;14.50;99.90;;;;;;5071688;28;20408;-86
2023/03/17 13:05:17;;;;;;;11.85;2.38;;;14.30;99.90;;;;;;5054806;28;20435;-85
2023/03/17 13:08:02;;;;;;;8.63;2.13;;;14.40;99.90;;;;;;5054217;28;20469;-85
2023/03/17 13:10:49;;;;;;;8.60;2.35;;;14.40;99.90;;;;;;5071161;28;20423;-86
2023/03/17 13:13:54;;;;;;;9.38;2.20;;;14.30;99.90;;;;;;5051902;28;20409;-85
2023/03/17 13:16:40;;;;;;;8.10;2.55;;;14.10;99.90;;;;;;5058719;28;20522;-85